createdAt,value
2019-03-23T00:01:25.432Z,102093.50
2019-03-23T00:03:51.222Z,102091.52
2019-03-23T00:06:17.001Z,102090.86
2019-03-23T00:08:42.806Z,102086.70
2019-03-23T00:11:08.623Z,102094.48
2019-03-23T00:13:34.388Z,102088.27
2019-03-23T00:16:00.180Z,102091.49
2019-03-23T00:18:25.993Z,102087.33
2019-03-23T00:20:51.783Z,102087.33
2019-03-23T00:23:17.581Z,102107.01
2019-03-23T00:25:43.379Z,102125.08
2019-03-23T00:28:09.157Z,102137.16
2019-03-23T00:30:34.957Z,102138.69
2019-03-23T00:33:00.734Z,102137.34
2019-03-23T00:35:26.538Z,102134.47
2019-03-23T00:37:52.326Z,102139.34
2019-03-23T00:40:18.134Z,102137.21
2019-03-23T00:42:43.921Z,102129.27
2019-03-23T00:45:09.914Z,102132.48
2019-03-23T00:47:35.710Z,102132.45
2019-03-23T00:50:02.035Z,102127.12
2019-03-23T00:52:27.797Z,102130.97
2019-03-23T00:54:53.603Z,102126.47
2019-03-23T00:57:19.385Z,102121.94
2019-03-23T00:59:45.176Z,102126.03
2019-03-23T01:02:10.973Z,102127.77
2019-03-23T01:04:36.809Z,102134.30
2019-03-23T01:07:02.750Z,102145.00
2019-03-23T01:09:28.554Z,102147.12
2019-03-23T01:11:54.332Z,102138.20
2019-03-23T01:14:20.146Z,102142.22
2019-03-23T01:16:45.928Z,102140.99
2019-03-23T01:19:11.712Z,102151.74
2019-03-23T01:21:37.786Z,102149.50
2019-03-23T01:24:03.688Z,102139.27
2019-03-23T01:26:29.486Z,102141.17
2019-03-23T01:28:55.410Z,102145.16
2019-03-23T01:31:21.336Z,102147.48
2019-03-23T01:33:47.116Z,102131.72
2019-03-23T01:36:13.052Z,102129.31
2019-03-23T01:38:38.832Z,102125.72
2019-03-23T01:41:05.072Z,102124.92
2019-03-23T01:43:31.014Z,102128.05
2019-03-23T01:45:56.816Z,102126.07
2019-03-23T01:48:22.594Z,102121.33
2019-03-23T01:50:49.054Z,102125.79
2019-03-23T01:53:14.836Z,102126.27
2019-03-23T01:55:40.869Z,102130.53
2019-03-23T01:58:06.661Z,102139.06
2019-03-23T02:00:32.554Z,102133.41
2019-03-23T02:02:58.450Z,102133.21
2019-03-23T02:05:24.486Z,102138.30
2019-03-23T02:07:50.268Z,102136.05
2019-03-23T02:10:16.061Z,102137.86
2019-03-23T02:12:41.921Z,102141.67
2019-03-23T02:15:09.722Z,102136.16
2019-03-23T02:17:35.909Z,102135.70
2019-03-23T02:20:04.953Z,102135.61
2019-03-23T02:22:30.747Z,102145.08
2019-03-23T02:24:57.334Z,102133.36
2019-03-23T02:27:23.510Z,102144.86
2019-03-23T02:29:49.336Z,101855.64
2019-03-23T02:32:15.829Z,102132.02
2019-03-23T02:34:42.358Z,102130.39
2019-03-23T02:37:08.142Z,102132.56
2019-03-23T02:39:34.039Z,102136.24
2019-03-23T02:41:59.821Z,102147.62
2019-03-23T02:44:25.600Z,102150.39
2019-03-23T02:46:51.398Z,102154.69
2019-03-23T02:49:17.907Z,102151.71
2019-03-23T02:51:43.999Z,102168.33
2019-03-23T02:54:09.856Z,102171.20
2019-03-23T02:56:35.618Z,102175.92
2019-03-23T02:59:04.608Z,102169.06
2019-03-23T03:01:30.395Z,102191.31
2019-03-23T03:03:56.177Z,102152.06
2019-03-23T03:06:22.302Z,102167.16
2019-03-23T03:08:48.088Z,102152.69
2019-03-23T03:11:13.913Z,102154.51
2019-03-23T03:13:39.692Z,102148.91
2019-03-23T03:16:05.486Z,102148.84
2019-03-23T03:18:31.289Z,102160.50
2019-03-23T03:20:57.096Z,102154.63
2019-03-23T03:23:22.884Z,102153.55
2019-03-23T03:25:48.661Z,102151.59
2019-03-23T03:28:14.473Z,102149.59
2019-03-23T03:30:40.258Z,102144.38
2019-03-23T03:33:06.040Z,102143.66
2019-03-23T03:35:31.815Z,102147.27
2019-03-23T03:37:57.622Z,102142.49
2019-03-23T03:40:23.398Z,102139.95
2019-03-23T03:42:49.220Z,102139.89
2019-03-23T03:45:22.963Z,102139.89
2019-03-23T03:47:48.763Z,102142.37
2019-03-23T03:50:14.547Z,102148.37
2019-03-23T03:52:40.341Z,102148.91
2019-03-23T03:55:06.625Z,102160.11
2019-03-23T03:57:32.420Z,102162.66
2019-03-23T03:59:58.212Z,102156.79
2019-03-23T04:02:24.033Z,102166.08
2019-03-23T04:04:49.814Z,102161.12
2019-03-23T04:07:15.671Z,102163.55
2019-03-23T04:09:41.440Z,102161.38
2019-03-23T04:12:07.217Z,102164.41
2019-03-23T04:14:33.016Z,102166.95
2019-03-23T04:16:58.800Z,102175.05
2019-03-23T04:19:24.745Z,102178.25
2019-03-23T04:21:50.520Z,102171.12
2019-03-23T04:24:16.315Z,102178.30
2019-03-23T04:26:42.097Z,102180.77
2019-03-23T04:29:07.904Z,102180.82
2019-03-23T04:31:33.681Z,102182.37
2019-03-23T04:33:59.473Z,102183.20
2019-03-23T04:36:25.248Z,102179.38
2019-03-23T04:38:51.041Z,102176.29
2019-03-23T04:41:16.819Z,102175.72
2019-03-23T04:43:42.608Z,102173.09
2019-03-23T04:46:08.393Z,102172.73
2019-03-23T04:48:34.188Z,102178.97
2019-03-23T04:50:59.968Z,102185.22
2019-03-23T04:53:25.759Z,102199.36
2019-03-23T04:55:51.552Z,102195.48
2019-03-23T04:58:17.332Z,102187.43
2019-03-23T05:00:43.135Z,102177.47
2019-03-23T05:03:08.919Z,102191.31
2019-03-23T05:05:34.715Z,102191.80
2019-03-23T05:08:00.496Z,102196.34
2019-03-23T05:10:26.304Z,102197.31
2019-03-23T05:12:52.090Z,102191.02
2019-03-23T05:15:17.894Z,102198.36
2019-03-23T05:17:43.671Z,102194.33
2019-03-23T05:20:13.279Z,102195.88
2019-03-23T05:22:39.075Z,102194.95
2019-03-23T05:25:05.671Z,102186.73
2019-03-23T05:27:31.457Z,102191.69
2019-03-23T05:29:57.258Z,102194.64
2019-03-23T05:32:23.042Z,102190.14
2019-03-23T05:34:48.835Z,102191.27
2019-03-23T05:37:14.614Z,102187.40
2019-03-23T05:39:40.397Z,102202.69
2019-03-23T05:42:06.304Z,102203.09
2019-03-23T05:44:32.083Z,102200.09
2019-03-23T05:46:57.895Z,102215.12
2019-03-23T05:49:23.681Z,102218.47
2019-03-23T05:51:49.483Z,102222.23
2019-03-23T05:54:15.260Z,102221.16
2019-03-23T05:56:41.053Z,102228.94
2019-03-23T05:59:06.840Z,102223.02
2019-03-23T06:01:32.636Z,102235.19
2019-03-23T06:03:58.413Z,102250.63
2019-03-23T06:06:24.210Z,102249.08
2019-03-23T06:08:54.903Z,102239.69
2019-03-23T06:11:17.694Z,102256.09
2019-03-23T06:13:43.476Z,102241.90
2019-03-23T06:16:09.275Z,102253.16
2019-03-23T06:18:35.057Z,102246.39
2019-03-23T06:21:00.864Z,102249.17
2019-03-23T06:23:26.645Z,102259.03
2019-03-23T06:25:52.437Z,102254.73
2019-03-23T06:28:18.237Z,102260.79
2019-03-23T06:30:44.031Z,102257.06
2019-03-23T06:33:09.816Z,102273.11
2019-03-23T06:35:35.629Z,102265.89
2019-03-23T06:38:01.404Z,102265.89
2019-03-23T06:40:27.202Z,102271.56
2019-03-23T06:42:59.756Z,102264.49
2019-03-23T06:45:20.773Z,102280.25
2019-03-23T06:47:46.569Z,102263.27
2019-03-23T06:50:12.649Z,102262.08
2019-03-23T06:52:38.458Z,102258.55
2019-03-23T06:55:05.647Z,102260.73
2019-03-23T06:57:31.444Z,102252.46
2019-03-23T06:59:57.225Z,102254.09
2019-03-23T07:02:23.023Z,102251.64
2019-03-23T07:04:49.617Z,102258.63
2019-03-23T07:07:15.429Z,102256.80
2019-03-23T07:09:41.218Z,102256.80
2019-03-23T07:12:07.021Z,102260.28
2019-03-23T07:14:32.797Z,102252.98
2019-03-23T07:16:58.592Z,102250.22
2019-03-23T07:19:24.367Z,102258.08
2019-03-23T07:21:50.582Z,102260.96
2019-03-23T07:24:16.474Z,102259.27
2019-03-23T07:26:42.272Z,102269.83
2019-03-23T07:29:08.066Z,102267.63
2019-03-23T07:31:33.846Z,102278.89
2019-03-23T07:33:59.642Z,102274.42
2019-03-23T07:36:25.422Z,102276.53
2019-03-23T07:38:51.224Z,102280.16
2019-03-23T07:41:16.996Z,102276.48
2019-03-23T07:43:42.799Z,102290.47
2019-03-23T07:46:08.631Z,102292.18
2019-03-23T07:48:34.378Z,102279.30
2019-03-23T07:51:00.146Z,102294.16
2019-03-23T07:53:25.941Z,102299.74
2019-03-23T07:55:51.725Z,102303.34
2019-03-23T07:58:17.529Z,102308.45
2019-03-23T08:00:43.292Z,102304.61
2019-03-23T08:03:09.094Z,102301.09
2019-03-23T08:05:34.880Z,102295.13
2019-03-23T08:08:00.684Z,102296.54
2019-03-23T08:10:30.866Z,102293.84
2019-03-23T08:12:56.664Z,102294.13
2019-03-23T08:15:22.444Z,102292.06
2019-03-23T08:17:48.228Z,102285.84
2019-03-23T08:20:14.037Z,102291.06
2019-03-23T08:22:39.837Z,102292.14
2019-03-23T08:25:05.727Z,102296.72
2019-03-23T08:27:31.510Z,102298.05
2019-03-23T08:29:57.306Z,102297.64
2019-03-23T08:32:23.086Z,102298.95
2019-03-23T08:34:48.881Z,102310.00
2019-03-23T08:37:14.662Z,102312.95
2019-03-23T08:39:48.048Z,102308.63
2019-03-23T08:42:08.152Z,102309.08
2019-03-23T08:44:33.953Z,102309.08
2019-03-23T08:46:59.734Z,102319.34
2019-03-23T08:49:25.535Z,102325.31
2019-03-23T08:51:51.315Z,102323.97
2019-03-23T08:54:17.115Z,102321.32
2019-03-23T08:56:42.897Z,102329.94
2019-03-23T08:59:08.687Z,102320.05
2019-03-23T09:01:34.463Z,102322.29
2019-03-23T09:04:00.286Z,102321.41
2019-03-23T09:06:26.064Z,102330.09
2019-03-23T09:08:51.847Z,102325.32
2019-03-23T09:11:20.740Z,102324.52
2019-03-23T09:13:45.333Z,102318.05
2019-03-23T09:16:11.142Z,102320.03
2019-03-23T09:18:36.926Z,102322.02
2019-03-23T09:21:02.736Z,102316.53
2019-03-23T09:23:28.522Z,102330.62
2019-03-23T09:25:54.347Z,102329.71
2019-03-23T09:28:20.115Z,102318.10
2019-03-23T09:30:45.910Z,102318.10
2019-03-23T09:33:11.700Z,102322.94
2019-03-23T09:35:39.379Z,102328.03
2019-03-23T09:38:05.192Z,102314.91
2019-03-23T09:40:30.999Z,102323.08
2019-03-23T09:42:56.779Z,102329.19
2019-03-23T09:45:22.578Z,102321.03
2019-03-23T09:47:48.360Z,102323.56
2019-03-23T09:50:14.465Z,102335.50
2019-03-23T09:52:40.260Z,102345.86
2019-03-23T09:55:06.460Z,102345.77
2019-03-23T09:57:32.269Z,102351.31
2019-03-23T09:59:58.058Z,102354.12
2019-03-23T10:02:23.864Z,102367.17
2019-03-23T10:04:49.647Z,102370.47
2019-03-23T10:07:15.445Z,102363.44
2019-03-23T10:09:41.239Z,102362.75
2019-03-23T10:12:07.043Z,102359.00
2019-03-23T10:14:32.827Z,102372.14
2019-03-23T10:16:58.624Z,102368.95
2019-03-23T10:19:24.572Z,102366.63
2019-03-23T10:21:50.353Z,102357.62
2019-03-23T10:24:16.164Z,102364.77
2019-03-23T10:26:41.960Z,102359.07
2019-03-23T10:29:07.745Z,102365.58
2019-03-23T10:31:33.538Z,102369.92
2019-03-23T10:33:59.320Z,102362.35
2019-03-23T10:36:25.122Z,102365.73
2019-03-23T10:38:50.908Z,102363.66
2019-03-23T10:41:16.723Z,102385.16
2019-03-23T10:43:42.507Z,102385.81
2019-03-23T10:46:08.305Z,102381.38
2019-03-23T10:48:34.084Z,102378.06
2019-03-23T10:50:59.873Z,102390.17
2019-03-23T10:53:25.713Z,102397.97
2019-03-23T10:55:51.490Z,102395.02
2019-03-23T10:58:17.297Z,102402.38
2019-03-23T11:00:43.080Z,102398.09
2019-03-23T11:03:08.896Z,102394.27
2019-03-23T11:05:34.678Z,102404.77
2019-03-23T11:08:00.512Z,102397.41
2019-03-23T11:10:26.276Z,102392.48
2019-03-23T11:12:52.084Z,102391.61
2019-03-23T11:15:17.874Z,102397.23
2019-03-23T11:17:43.667Z,102399.28
2019-03-23T11:20:11.149Z,102406.59
2019-03-23T11:22:36.970Z,102402.75
2019-03-23T11:25:05.160Z,102404.75
2019-03-23T11:27:30.999Z,102408.15
2019-03-23T11:29:56.790Z,102416.25
2019-03-23T11:32:22.570Z,102421.89
2019-03-23T11:34:48.365Z,102429.99
2019-03-23T11:37:14.216Z,102418.95
2019-03-23T11:39:40.057Z,102426.95
2019-03-23T11:42:05.839Z,102429.36
2019-03-23T11:44:31.625Z,102422.63
2019-03-23T11:46:57.410Z,102432.44
2019-03-23T11:49:23.217Z,102436.71
2019-03-23T11:51:49.006Z,102441.05
2019-03-23T11:54:14.805Z,102437.11
2019-03-23T11:56:40.600Z,102434.88
2019-03-23T11:59:06.398Z,102421.68
2019-03-23T12:01:32.189Z,102426.02
2019-03-23T12:03:57.989Z,102425.80
2019-03-23T12:06:24.188Z,102431.38
2019-03-23T12:08:49.986Z,102439.85
2019-03-23T12:11:15.780Z,102421.06
2019-03-23T12:13:41.572Z,102421.06
2019-03-23T12:16:07.363Z,102429.83
2019-03-23T12:18:33.153Z,102435.23
2019-03-23T12:20:58.969Z,102442.49
2019-03-23T12:23:24.799Z,102456.19
2019-03-23T12:25:50.572Z,102450.36
2019-03-23T12:28:16.386Z,102447.13
2019-03-23T12:30:42.181Z,102439.02
2019-03-23T12:33:07.968Z,102443.61
2019-03-23T12:35:33.769Z,102441.11
2019-03-23T12:37:59.569Z,102441.31
2019-03-23T12:40:25.356Z,102437.72
2019-03-23T12:42:51.142Z,102444.98
2019-03-23T12:45:16.949Z,102451.77
2019-03-23T12:47:42.748Z,102451.13
2019-03-23T12:50:09.438Z,102452.82
2019-03-23T12:52:35.227Z,102442.79
2019-03-23T12:55:01.123Z,102447.19
2019-03-23T12:57:26.903Z,102444.70
2019-03-23T12:59:52.693Z,102445.05
2019-03-23T13:02:18.482Z,102460.08
2019-03-23T13:04:44.308Z,102440.77
2019-03-23T13:07:10.094Z,102445.84
2019-03-23T13:09:35.889Z,102440.30
2019-03-23T13:12:01.669Z,102449.07
2019-03-23T13:14:27.461Z,102461.75
2019-03-23T13:16:53.258Z,102459.73
2019-03-23T13:19:19.044Z,102453.95
2019-03-23T13:21:44.865Z,102450.19
2019-03-23T13:24:12.558Z,102450.78
2019-03-23T13:26:38.360Z,102454.45
2019-03-23T13:29:04.142Z,102456.00
2019-03-23T13:31:29.941Z,102459.09
2019-03-23T13:33:55.731Z,102451.73
2019-03-23T13:36:21.522Z,102445.83
2019-03-23T13:38:47.305Z,102449.07
2019-03-23T13:41:13.110Z,102447.34
2019-03-23T13:43:38.889Z,102446.17
2019-03-23T13:46:04.694Z,102448.56
2019-03-23T13:48:30.476Z,102457.67
2019-03-23T13:50:56.277Z,102454.80
2019-03-23T13:53:22.071Z,102461.41
2019-03-23T13:55:47.903Z,102456.00
2019-03-23T13:58:13.787Z,102450.28
2019-03-23T14:00:39.578Z,102442.49
2019-03-23T14:03:06.374Z,102448.88
2019-03-23T14:05:32.157Z,102454.95
2019-03-23T14:07:57.955Z,102456.30
2019-03-23T14:10:23.750Z,102452.06
2019-03-23T14:12:49.546Z,102441.35
2019-03-23T14:15:15.324Z,102446.60
2019-03-23T14:17:41.116Z,102449.34
2019-03-23T14:20:06.897Z,102444.07
2019-03-23T14:22:32.705Z,102450.88
2019-03-23T14:24:58.490Z,102441.73
2019-03-23T14:27:24.312Z,102452.72
2019-03-23T14:29:50.154Z,102453.20
2019-03-23T14:32:15.958Z,102465.38
2019-03-23T14:34:41.762Z,102459.95
2019-03-23T14:37:07.673Z,102467.73
2019-03-23T14:39:33.460Z,102465.19
2019-03-23T14:42:04.893Z,102454.79
2019-03-23T14:44:26.949Z,102469.84
2019-03-23T14:46:52.746Z,102472.23
2019-03-23T14:49:18.527Z,102471.05
2019-03-23T14:51:44.322Z,102476.75
2019-03-23T14:54:10.145Z,102466.59
2019-03-23T14:56:35.935Z,102468.27
2019-03-23T14:59:01.730Z,102476.63
2019-03-23T15:01:27.515Z,102478.33
2019-03-23T15:03:53.341Z,102481.71
2019-03-23T15:06:19.101Z,102473.73
2019-03-23T15:08:44.901Z,102481.71
2019-03-23T15:11:10.689Z,102472.25
2019-03-23T15:13:36.487Z,102476.48
2019-03-23T15:16:02.283Z,102472.16
2019-03-23T15:18:28.101Z,102477.56
2019-03-23T15:20:53.884Z,102499.23
2019-03-23T15:23:19.711Z,102499.45
2019-03-23T15:25:45.493Z,102491.34
2019-03-23T15:28:11.314Z,102493.27
2019-03-23T15:30:37.093Z,102492.78
2019-03-23T15:33:02.886Z,102498.45
2019-03-23T15:35:28.683Z,102496.14
2019-03-23T15:37:54.473Z,102500.02
2019-03-23T15:40:20.269Z,102514.70
2019-03-23T15:42:46.065Z,102506.30
2019-03-23T15:45:12.061Z,102496.71
2019-03-23T15:47:37.856Z,102505.64
2019-03-23T15:50:04.866Z,102509.34
2019-03-23T15:52:30.659Z,102505.53
2019-03-23T15:54:56.455Z,102524.98
2019-03-23T15:57:22.239Z,102537.36
2019-03-23T15:59:48.034Z,102525.16
2019-03-23T16:02:13.820Z,102532.47
2019-03-23T16:04:39.616Z,102529.55
2019-03-23T16:07:05.414Z,102559.33
2019-03-23T16:09:31.216Z,102540.64
2019-03-23T16:11:57.010Z,102553.56
2019-03-23T16:14:22.803Z,102553.56
2019-03-23T16:16:48.594Z,102549.10
2019-03-23T16:19:14.398Z,102557.29
2019-03-23T16:21:40.207Z,102563.20
2019-03-23T16:24:05.989Z,102567.22
2019-03-23T16:26:31.787Z,102570.39
2019-03-23T16:28:57.570Z,102563.20
2019-03-23T16:31:23.365Z,102563.94
2019-03-23T16:33:49.157Z,102566.89
2019-03-23T16:36:14.961Z,102563.31
2019-03-23T16:38:40.746Z,102572.33
2019-03-23T16:41:06.546Z,102582.98
2019-03-23T16:43:32.324Z,102571.42
2019-03-23T16:45:58.121Z,102568.06
2019-03-23T16:48:23.980Z,102560.07
2019-03-23T16:50:49.842Z,102560.07
2019-03-23T16:53:15.632Z,102574.38
2019-03-23T16:55:41.449Z,102575.88
2019-03-23T16:58:15.694Z,102576.80
2019-03-23T17:00:36.453Z,102576.51
2019-03-23T17:03:03.250Z,102577.27
2019-03-23T17:05:29.056Z,102577.27
2019-03-23T17:07:54.834Z,102579.28
2019-03-23T17:10:20.617Z,102574.38
2019-03-23T17:12:55.096Z,102582.33
2019-03-23T17:15:14.101Z,102584.02
2019-03-23T17:17:39.896Z,102592.66
2019-03-23T17:20:05.886Z,102585.52
2019-03-23T17:22:31.696Z,102597.73
2019-03-23T17:24:57.483Z,102590.86
2019-03-23T17:27:23.301Z,102602.64
2019-03-23T17:29:49.085Z,102602.64
2019-03-23T17:32:14.892Z,102612.27
2019-03-23T17:34:40.673Z,102608.95
2019-03-23T17:37:06.529Z,102606.67
2019-03-23T17:39:32.295Z,102606.01
2019-03-23T17:41:58.089Z,102613.58
2019-03-23T17:44:23.873Z,102612.64
2019-03-23T17:46:49.669Z,102610.15
2019-03-23T17:49:15.445Z,102613.46
2019-03-23T17:51:41.242Z,102611.59
2019-03-23T17:54:07.022Z,102618.94
2019-03-23T17:56:32.886Z,102619.20
2019-03-23T17:58:58.666Z,102615.06
2019-03-23T18:01:24.453Z,102607.55
2019-03-23T18:03:50.253Z,102621.97
2019-03-23T18:06:16.047Z,102621.91
2019-03-23T18:08:41.841Z,102622.53
2019-03-23T18:11:07.626Z,102632.45
2019-03-23T18:13:33.424Z,102628.27
2019-03-23T18:15:59.208Z,102636.02
2019-03-23T18:18:25.008Z,102632.78
2019-03-23T18:20:50.790Z,102626.79
2019-03-23T18:23:16.823Z,102629.63
2019-03-23T18:25:42.596Z,102624.64
2019-03-23T18:28:08.395Z,102623.59
2019-03-23T18:30:39.209Z,102633.13
2019-03-23T18:33:05.214Z,102633.16
2019-03-23T18:35:31.090Z,102634.76
2019-03-23T18:37:56.881Z,102630.36
2019-03-23T18:40:22.671Z,102638.67
2019-03-23T18:42:48.455Z,102639.62
2019-03-23T18:45:14.268Z,102641.72
2019-03-23T18:47:40.052Z,102641.72
2019-03-23T18:50:05.957Z,102649.55
2019-03-23T18:52:31.846Z,102647.37
2019-03-23T18:54:57.735Z,102653.45
2019-03-23T18:57:23.517Z,102661.15
2019-03-23T18:59:49.328Z,102664.34
2019-03-23T19:02:15.100Z,102669.87
2019-03-23T19:04:40.895Z,102665.72
2019-03-23T19:07:06.679Z,102671.08
2019-03-23T19:09:32.493Z,102667.54
2019-03-23T19:11:58.472Z,102659.03
2019-03-23T19:14:24.278Z,102674.25
2019-03-23T19:16:50.060Z,102673.78
2019-03-23T19:19:15.858Z,102679.52
2019-03-23T19:21:41.650Z,102672.30
2019-03-23T19:24:07.444Z,102669.48
2019-03-23T19:26:33.227Z,102670.97
2019-03-23T19:28:59.036Z,102678.78
2019-03-23T19:31:24.819Z,102686.94
2019-03-23T19:33:50.595Z,102697.34
2019-03-23T19:36:16.394Z,102700.09
2019-03-23T19:38:42.177Z,102697.55
2019-03-23T19:41:07.973Z,102699.62
2019-03-23T19:43:33.759Z,102699.73
2019-03-23T19:45:59.558Z,102699.86
2019-03-23T19:48:25.344Z,102699.12
2019-03-23T19:50:51.134Z,102709.72
2019-03-23T19:53:17.033Z,102711.19
2019-03-23T19:55:42.823Z,102708.14
2019-03-23T19:58:08.606Z,102711.66
2019-03-23T20:00:34.413Z,102717.02
2019-03-23T20:03:00.194Z,102713.73
2019-03-23T20:05:26.015Z,102710.53
2019-03-23T20:07:51.777Z,102714.77
2019-03-23T20:10:17.687Z,102712.95
2019-03-23T20:12:43.465Z,102708.31
2019-03-23T20:15:09.870Z,102716.06
2019-03-23T20:17:35.652Z,102707.66
2019-03-23T20:20:03.549Z,102709.25
2019-03-23T20:22:29.345Z,102714.69
2019-03-23T20:24:55.828Z,102717.52
2019-03-23T20:27:21.613Z,102724.20
2019-03-23T20:29:47.396Z,102719.06
2019-03-23T20:32:13.194Z,102710.17
2019-03-23T20:34:38.978Z,102712.72
2019-03-23T20:37:04.780Z,102724.25
2019-03-23T20:39:30.567Z,102714.39
2019-03-23T20:41:56.370Z,102709.41
2019-03-23T20:44:22.157Z,102712.16
2019-03-23T20:46:48.043Z,102713.62
2019-03-23T20:49:13.921Z,102708.36
2019-03-23T20:51:40.039Z,102713.00
2019-03-23T20:54:05.813Z,102707.64
2019-03-23T20:56:31.606Z,102706.90
2019-03-23T20:58:57.384Z,102700.64
2019-03-23T21:01:23.176Z,102711.95
2019-03-23T21:03:48.966Z,102710.14
2019-03-23T21:06:14.762Z,102708.78
2019-03-23T21:08:40.541Z,102707.06
2019-03-23T21:11:06.329Z,102713.91
2019-03-23T21:13:32.112Z,102713.91
2019-03-23T21:15:57.931Z,102715.59
2019-03-23T21:18:23.706Z,102716.69
2019-03-23T21:20:49.484Z,102725.27
2019-03-23T21:23:15.301Z,102723.44
2019-03-23T21:25:41.081Z,102723.44
2019-03-23T21:28:06.884Z,102726.70
2019-03-23T21:30:32.673Z,102723.41
2019-03-23T21:32:58.473Z,102720.57
2019-03-23T21:35:24.245Z,102720.78
2019-03-23T21:37:50.102Z,102716.77
2019-03-23T21:40:15.838Z,102710.30
2019-03-23T21:42:41.636Z,102713.69
2019-03-23T21:45:08.126Z,102715.39
2019-03-23T21:47:34.129Z,102717.91
2019-03-23T21:49:59.913Z,102721.84
2019-03-23T21:52:25.718Z,102721.80
2019-03-23T21:54:51.505Z,102723.27
2019-03-23T21:57:17.385Z,102722.67
2019-03-23T21:59:43.185Z,102719.20
2019-03-23T22:02:08.960Z,102715.27
2019-03-23T22:04:35.037Z,102713.12
2019-03-23T22:07:00.868Z,102717.73
2019-03-23T22:09:26.662Z,102714.40
2019-03-23T22:11:52.448Z,102713.56
2019-03-23T22:14:18.387Z,102708.14
2019-03-23T22:16:44.324Z,102710.72
2019-03-23T22:19:10.116Z,102713.82
2019-03-23T22:21:35.914Z,102705.46
2019-03-23T22:24:01.708Z,102703.50
2019-03-23T22:26:27.496Z,102699.48
2019-03-23T22:28:53.289Z,102692.42
2019-03-23T22:31:19.076Z,102696.68
2019-03-23T22:33:44.871Z,102698.70
2019-03-23T22:36:10.654Z,102697.77
2019-03-23T22:38:36.454Z,102695.09
2019-03-23T22:41:02.236Z,102700.45
2019-03-23T22:43:28.046Z,102703.28
2019-03-23T22:45:53.840Z,102706.55
2019-03-23T22:48:19.622Z,102696.44
2019-03-23T22:50:45.428Z,102692.76
2019-03-23T22:53:11.217Z,102689.20
2019-03-23T22:55:37.016Z,102694.92
2019-03-23T22:58:02.897Z,102687.63
2019-03-23T23:00:42.175Z,102689.62
2019-03-23T23:03:08.264Z,102686.23
2019-03-23T23:05:34.060Z,102684.64
2019-03-23T23:07:59.842Z,102682.89
2019-03-23T23:10:25.632Z,102673.19
2019-03-23T23:12:51.422Z,102669.52
2019-03-23T23:15:17.295Z,102665.25
2019-03-23T23:17:43.074Z,102663.36
2019-03-23T23:20:09.066Z,102665.62
2019-03-23T23:22:34.856Z,102671.31
2019-03-23T23:25:01.151Z,102671.28
2019-03-23T23:27:26.933Z,102671.61
2019-03-23T23:29:52.729Z,102672.16
2019-03-23T23:32:18.508Z,102670.40
2019-03-23T23:34:44.360Z,102671.73
2019-03-23T23:37:10.107Z,102674.45
2019-03-23T23:39:35.885Z,102676.30
2019-03-23T23:42:01.677Z,102678.13
2019-03-23T23:44:27.467Z,102680.09
2019-03-23T23:46:53.275Z,102673.44
2019-03-23T23:49:19.065Z,102683.93
2019-03-23T23:51:50.084Z,102673.41
2019-03-23T23:54:12.558Z,102668.86
2019-03-23T23:56:38.408Z,102664.34
2019-03-23T23:59:04.242Z,102660.17
